JLY1261 SBGR-SBRJ
Flight info
| Callsign | JLY1261 |
|---|---|
| Flight time | 0h 38m |
| Altitude | 25000 |
| Route | NIBRU UZ171 KEVUN |
| Aircraft | A20N/M-SDE2E3FGHIRWXY/LB1 |
Departure
| Time | 2026-05-03 22:56 |
|---|---|
| Airport | São Paulo/Guarulhos–Governor André Franco Montoro International Airport (SBGR) |
Arrival
| Time | 2026-05-03 23:35 |
|---|---|
| Airport | Santos Dumont Airport (SBRJ) |
| Time | Latitude | Longitude | Altitude | Speed | Heading |
|---|---|---|---|---|---|
| 2026-05-03 22:41 | -23.42787 | -46.47960 | 2469 ft | 0 kts | 265° |
| 2026-05-03 22:48 | -23.42786 | -46.47949 | 2469 ft | 2 kts | 265° |
| 2026-05-03 22:48 | -23.42785 | -46.47933 | 2469 ft | 2 kts | 265° |
| 2026-05-03 22:49 | -23.42784 | -46.47916 | 2469 ft | 2 kts | 265° |
| 2026-05-03 22:49 | -23.42783 | -46.47906 | 2469 ft | 2 kts | 265° |
| 2026-05-03 22:49 | -23.42777 | -46.47892 | 2469 ft | 2 kts | 216° |
| 2026-05-03 22:49 | -23.42763 | -46.47887 | 2469 ft | 1 kts | 176° |
| 2026-05-03 22:50 | -23.42757 | -46.47889 | 2469 ft | 1 kts | 165° |
| 2026-05-03 22:50 | -23.42754 | -46.47889 | 2469 ft | 0 kts | 168° |
| 2026-05-03 22:52 | -23.42763 | -46.47887 | 2469 ft | 3 kts | 167° |
| 2026-05-03 22:52 | -23.42799 | -46.47875 | 2469 ft | 7 kts | 158° |
| 2026-05-03 22:52 | -23.42860 | -46.47848 | 2469 ft | 10 kts | 162° |
| 2026-05-03 22:52 | -23.42932 | -46.47830 | 2469 ft | 10 kts | 168° |
| 2026-05-03 22:53 | -23.43008 | -46.47816 | 2469 ft | 10 kts | 188° |
| 2026-05-03 22:53 | -23.43051 | -46.47884 | 2468 ft | 11 kts | 253° |
| 2026-05-03 22:53 | -23.43076 | -46.47973 | 2468 ft | 12 kts | 253° |
| 2026-05-03 22:53 | -23.43098 | -46.48058 | 2468 ft | 11 kts | 253° |
| 2026-05-03 22:54 | -23.43135 | -46.48115 | 2468 ft | 9 kts | 187° |
| 2026-05-03 22:54 | -23.43191 | -46.48101 | 2468 ft | 7 kts | 163° |
| 2026-05-03 22:54 | -23.43246 | -46.48083 | 2468 ft | 8 kts | 163° |
| 2026-05-03 22:54 | -23.43306 | -46.48064 | 2468 ft | 8 kts | 163° |
| 2026-05-03 22:55 | -23.43347 | -46.48036 | 2468 ft | 7 kts | 95° |
| 2026-05-03 22:55 | -23.43336 | -46.47986 | 2468 ft | 8 kts | 73° |
| 2026-05-03 22:55 | -23.43255 | -46.47688 | 2469 ft | 81 kts | 73° |
| 2026-05-03 22:55 | -23.43024 | -46.46835 | 2469 ft | 150 kts | 73° |
| 2026-05-03 22:56 | -23.42692 | -46.45621 | 2860 ft | 173 kts | 76° |
| 2026-05-03 22:56 | -23.42331 | -46.44369 | 3562 ft | 181 kts | 75° |
| 2026-05-03 22:56 | -23.41950 | -46.43030 | 4132 ft | 197 kts | 74° |
| 2026-05-03 22:56 | -23.41521 | -46.41531 | 4612 ft | 221 kts | 73° |
| 2026-05-03 22:57 | -23.41043 | -46.39875 | 5244 ft | 239 kts | 72° |
| 2026-05-03 22:57 | -23.40533 | -46.38090 | 5900 ft | 257 kts | 73° |
| 2026-05-03 22:57 | -23.40278 | -46.36100 | 6507 ft | 278 kts | 90° |
| 2026-05-03 22:57 | -23.40664 | -46.33963 | 7091 ft | 300 kts | 106° |
| 2026-05-03 22:58 | -23.41378 | -46.31758 | 7664 ft | 319 kts | 108° |
| 2026-05-03 22:58 | -23.42166 | -46.29421 | 8198 ft | 338 kts | 109° |
| 2026-05-03 22:58 | -23.42989 | -46.26949 | 8675 ft | 357 kts | 108° |
| 2026-05-03 22:58 | -23.43741 | -46.24300 | 9110 ft | 376 kts | 104° |
| 2026-05-03 22:59 | -23.44352 | -46.21465 | 9498 ft | 394 kts | 101° |
| 2026-05-03 22:59 | -23.44872 | -46.18539 | 10044 ft | 405 kts | 100° |
| 2026-05-03 22:59 | -23.45391 | -46.15517 | 10741 ft | 410 kts | 100° |
| 2026-05-03 22:59 | -23.45922 | -46.12417 | 11400 ft | 415 kts | 101° |
| 2026-05-03 23:00 | -23.46448 | -46.09360 | 12023 ft | 420 kts | 101° |
| 2026-05-03 23:00 | -23.46989 | -46.06220 | 12640 ft | 425 kts | 101° |
| 2026-05-03 23:00 | -23.47532 | -46.03073 | 13511 ft | 421 kts | 101° |
| 2026-05-03 23:00 | -23.48065 | -45.99979 | 14558 ft | 413 kts | 101° |
| 2026-05-03 23:01 | -23.48587 | -45.96954 | 15601 ft | 405 kts | 102° |
| 2026-05-03 23:01 | -23.49097 | -45.93994 | 16626 ft | 396 kts | 102° |
| 2026-05-03 23:01 | -23.49600 | -45.91100 | 17653 ft | 387 kts | 102° |
| 2026-05-03 23:01 | -23.50097 | -45.88277 | 18679 ft | 377 kts | 103° |
| 2026-05-03 23:02 | -23.50581 | -45.85522 | 19690 ft | 368 kts | 103° |
| 2026-05-03 23:02 | -23.51044 | -45.82837 | 20690 ft | 359 kts | 101° |
| 2026-05-03 23:02 | -23.51057 | -45.80200 | 21588 ft | 356 kts | 80° |
| 2026-05-03 23:02 | -23.50270 | -45.77662 | 22239 ft | 358 kts | 64° |
| 2026-05-03 23:03 | -23.49233 | -45.75130 | 22550 ft | 374 kts | 67° |
| 2026-05-03 23:03 | -23.48227 | -45.72459 | 22824 ft | 389 kts | 68° |
| 2026-05-03 23:03 | -23.47200 | -45.69670 | 23094 ft | 404 kts | 68° |
| 2026-05-03 23:03 | -23.46167 | -45.66814 | 23731 ft | 405 kts | 68° |
| 2026-05-03 23:04 | -23.45193 | -45.64052 | 24462 ft | 380 kts | 68° |
| 2026-05-03 23:04 | -23.44276 | -45.61389 | 24967 ft | 375 kts | 68° |
| 2026-05-03 23:04 | -23.43366 | -45.58711 | 25211 ft | 381 kts | 68° |
| 2026-05-03 23:04 | -23.42453 | -45.56002 | 25225 ft | 381 kts | 68° |
| 2026-05-03 23:05 | -23.41544 | -45.53296 | 25230 ft | 381 kts | 68° |
| 2026-05-03 23:05 | -23.40648 | -45.50626 | 25229 ft | 381 kts | 68° |
| 2026-05-03 23:05 | -23.39743 | -45.47912 | 25230 ft | 382 kts | 68° |
| 2026-05-03 23:05 | -23.38832 | -45.45203 | 25231 ft | 381 kts | 68° |
| 2026-05-03 23:06 | -23.37930 | -45.42488 | 25230 ft | 382 kts | 72° |
| 2026-05-03 23:06 | -23.37532 | -45.39643 | 25221 ft | 382 kts | 95° |
| 2026-05-03 23:06 | -23.38014 | -45.36839 | 25235 ft | 376 kts | 113° |
| 2026-05-03 23:06 | -23.38921 | -45.34173 | 25236 ft | 375 kts | 116° |
| 2026-05-03 23:07 | -23.39986 | -45.31566 | 25243 ft | 382 kts | 122° |
| 2026-05-03 23:07 | -23.41292 | -45.29007 | 25241 ft | 390 kts | 127° |
| 2026-05-03 23:07 | -23.42712 | -45.26480 | 25237 ft | 392 kts | 127° |
| 2026-05-03 23:07 | -23.44134 | -45.23994 | 25235 ft | 394 kts | 127° |
| 2026-05-03 23:08 | -23.45615 | -45.21411 | 25235 ft | 407 kts | 125° |
| 2026-05-03 23:08 | -23.46687 | -45.18521 | 25216 ft | 420 kts | 102° |
| 2026-05-03 23:08 | -23.46820 | -45.15332 | 25232 ft | 424 kts | 87° |
| 2026-05-03 23:08 | -23.46592 | -45.12107 | 25234 ft | 435 kts | 85° |
| 2026-05-03 23:09 | -23.46398 | -45.08749 | 25230 ft | 455 kts | 88° |
| 2026-05-03 23:09 | -23.46331 | -45.05265 | 25220 ft | 464 kts | 91° |
| 2026-05-03 23:09 | -23.46355 | -45.01745 | 25217 ft | 466 kts | 92° |
| 2026-05-03 23:09 | -23.46408 | -44.98216 | 25219 ft | 467 kts | 90° |
| 2026-05-03 23:10 | -23.46174 | -44.94694 | 25217 ft | 467 kts | 82° |
| 2026-05-03 23:10 | -23.45566 | -44.91230 | 25212 ft | 466 kts | 76° |
| 2026-05-03 23:10 | -23.44789 | -44.87809 | 25206 ft | 465 kts | 75° |
| 2026-05-03 23:10 | -23.44001 | -44.84484 | 25052 ft | 457 kts | 74° |
| 2026-05-03 23:11 | -23.43220 | -44.81147 | 24488 ft | 456 kts | 75° |
| 2026-05-03 23:11 | -23.42448 | -44.77804 | 23886 ft | 455 kts | 76° |
| 2026-05-03 23:11 | -23.41694 | -44.74477 | 23408 ft | 451 kts | 76° |
| 2026-05-03 23:11 | -23.40957 | -44.71182 | 22961 ft | 447 kts | 77° |
| 2026-05-03 23:12 | -23.40227 | -44.67914 | 22491 ft | 443 kts | 77° |
| 2026-05-03 23:12 | -23.39509 | -44.64679 | 22013 ft | 439 kts | 77° |
| 2026-05-03 23:12 | -23.38795 | -44.61470 | 21556 ft | 435 kts | 77° |
| 2026-05-03 23:12 | -23.38087 | -44.58293 | 21114 ft | 430 kts | 76° |
| 2026-05-03 23:13 | -23.37384 | -44.55151 | 20678 ft | 425 kts | 76° |
| 2026-05-03 23:13 | -23.36686 | -44.52042 | 20222 ft | 421 kts | 76° |
| 2026-05-03 23:13 | -23.35995 | -44.48965 | 19784 ft | 417 kts | 76° |
| 2026-05-03 23:13 | -23.35309 | -44.45918 | 19332 ft | 413 kts | 76° |
| 2026-05-03 23:14 | -23.34546 | -44.42927 | 18910 ft | 408 kts | 71° |
| 2026-05-03 23:14 | -23.33560 | -44.40055 | 18484 ft | 403 kts | 65° |
| 2026-05-03 23:14 | -23.32425 | -44.37332 | 18045 ft | 399 kts | 63° |
| 2026-05-03 23:14 | -23.31239 | -44.34602 | 17599 ft | 396 kts | 63° |
| 2026-05-03 23:15 | -23.30067 | -44.31914 | 17170 ft | 392 kts | 63° |
| 2026-05-03 23:15 | -23.28915 | -44.29264 | 16667 ft | 384 kts | 63° |
| 2026-05-03 23:15 | -23.27791 | -44.26666 | 15909 ft | 378 kts | 63° |
| 2026-05-03 23:15 | -23.26685 | -44.24104 | 15129 ft | 372 kts | 63° |
| 2026-05-03 23:16 | -23.25599 | -44.21587 | 14374 ft | 365 kts | 64° |
| 2026-05-03 23:16 | -23.24536 | -44.19121 | 13622 ft | 358 kts | 64° |
| 2026-05-03 23:16 | -23.23489 | -44.16690 | 12931 ft | 355 kts | 64° |
| 2026-05-03 23:16 | -23.22466 | -44.14313 | 12520 ft | 349 kts | 64° |
| 2026-05-03 23:17 | -23.21444 | -44.11941 | 12127 ft | 344 kts | 64° |
| 2026-05-03 23:17 | -23.20429 | -44.09589 | 11604 ft | 345 kts | 64° |
| 2026-05-03 23:17 | -23.19403 | -44.07236 | 11142 ft | 342 kts | 63° |
| 2026-05-03 23:17 | -23.18356 | -44.04949 | 10910 ft | 334 kts | 62° |
| 2026-05-03 23:18 | -23.17326 | -44.02728 | 10669 ft | 325 kts | 62° |
| 2026-05-03 23:18 | -23.16326 | -44.00566 | 10428 ft | 316 kts | 62° |
| 2026-05-03 23:18 | -23.15367 | -43.98451 | 10177 ft | 308 kts | 63° |
| 2026-05-03 23:18 | -23.14475 | -43.96365 | 9937 ft | 300 kts | 64° |
| 2026-05-03 23:19 | -23.13612 | -43.94326 | 9693 ft | 293 kts | 64° |
| 2026-05-03 23:19 | -23.12769 | -43.92335 | 9452 ft | 287 kts | 64° |
| 2026-05-03 23:19 | -23.11942 | -43.90391 | 9210 ft | 280 kts | 64° |
| 2026-05-03 23:19 | -23.11130 | -43.88490 | 8969 ft | 274 kts | 64° |
| 2026-05-03 23:20 | -23.10336 | -43.86631 | 8751 ft | 267 kts | 64° |
| 2026-05-03 23:20 | -23.09566 | -43.84833 | 8624 ft | 257 kts | 64° |
| 2026-05-03 23:20 | -23.08827 | -43.83102 | 8501 ft | 247 kts | 64° |
| 2026-05-03 23:20 | -23.08124 | -43.81459 | 8379 ft | 240 kts | 64° |
| 2026-05-03 23:21 | -23.07420 | -43.79816 | 8261 ft | 240 kts | 64° |
| 2026-05-03 23:21 | -23.06715 | -43.78172 | 8212 ft | 240 kts | 64° |
| 2026-05-03 23:21 | -23.06010 | -43.76530 | 8211 ft | 240 kts | 64° |
| 2026-05-03 23:21 | -23.05305 | -43.74886 | 8209 ft | 240 kts | 64° |
| 2026-05-03 23:22 | -23.03894 | -43.71600 | 8203 ft | 240 kts | 64° |
| 2026-05-03 23:22 | -23.03187 | -43.69955 | 8207 ft | 240 kts | 64° |
| 2026-05-03 23:22 | -23.02482 | -43.68331 | 8072 ft | 236 kts | 64° |
| 2026-05-03 23:23 | -23.01776 | -43.66720 | 7745 ft | 237 kts | 64° |
| 2026-05-03 23:23 | -23.01067 | -43.65105 | 7446 ft | 236 kts | 64° |
| 2026-05-03 23:23 | -23.00361 | -43.63497 | 7166 ft | 235 kts | 65° |
| 2026-05-03 23:23 | -22.99664 | -43.61906 | 6949 ft | 231 kts | 65° |
| 2026-05-03 23:24 | -22.98982 | -43.60352 | 6627 ft | 232 kts | 65° |
| 2026-05-03 23:24 | -22.98284 | -43.58766 | 6320 ft | 232 kts | 65° |
| 2026-05-03 23:24 | -22.97591 | -43.57189 | 6056 ft | 230 kts | 65° |
| 2026-05-03 23:24 | -22.96905 | -43.55628 | 5993 ft | 229 kts | 65° |
| 2026-05-03 23:25 | -22.96215 | -43.54061 | 5990 ft | 230 kts | 66° |
| 2026-05-03 23:25 | -22.95531 | -43.52506 | 5977 ft | 222 kts | 66° |
| 2026-05-03 23:25 | -22.94885 | -43.51040 | 5966 ft | 207 kts | 66° |
| 2026-05-03 23:25 | -22.94285 | -43.49643 | 5804 ft | 201 kts | 67° |
| 2026-05-03 23:26 | -22.93718 | -43.48296 | 5622 ft | 197 kts | 67° |
| 2026-05-03 23:26 | -22.93149 | -43.46945 | 5390 ft | 196 kts | 67° |
| 2026-05-03 23:26 | -22.92583 | -43.45601 | 5167 ft | 194 kts | 67° |
| 2026-05-03 23:26 | -22.92032 | -43.44301 | 4978 ft | 186 kts | 67° |
| 2026-05-03 23:27 | -22.91505 | -43.43056 | 4779 ft | 179 kts | 68° |
| 2026-05-03 23:27 | -22.90991 | -43.41841 | 4548 ft | 174 kts | 68° |
| 2026-05-03 23:27 | -22.90492 | -43.40671 | 4335 ft | 170 kts | 67° |
| 2026-05-03 23:27 | -22.89995 | -43.39505 | 4140 ft | 170 kts | 68° |
| 2026-05-03 23:28 | -22.89509 | -43.38364 | 3944 ft | 166 kts | 68° |
| 2026-05-03 23:28 | -22.89028 | -43.37237 | 3723 ft | 161 kts | 68° |
| 2026-05-03 23:28 | -22.88588 | -43.36154 | 3539 ft | 153 kts | 73° |
| 2026-05-03 23:28 | -22.88338 | -43.35048 | 3399 ft | 149 kts | 86° |
| 2026-05-03 23:29 | -22.88302 | -43.33941 | 3330 ft | 148 kts | 94° |
| 2026-05-03 23:29 | -22.88340 | -43.32818 | 3250 ft | 147 kts | 94° |
| 2026-05-03 23:29 | -22.88385 | -43.31706 | 3167 ft | 147 kts | 94° |
| 2026-05-03 23:29 | -22.88426 | -43.30603 | 3080 ft | 147 kts | 94° |
| 2026-05-03 23:30 | -22.88465 | -43.29484 | 2994 ft | 148 kts | 94° |
| 2026-05-03 23:30 | -22.88505 | -43.28360 | 2906 ft | 148 kts | 94° |
| 2026-05-03 23:30 | -22.88546 | -43.27251 | 2817 ft | 148 kts | 95° |
| 2026-05-03 23:30 | -22.88686 | -43.26144 | 2715 ft | 147 kts | 110° |
| 2026-05-03 23:31 | -22.89038 | -43.25114 | 2521 ft | 146 kts | 114° |
| 2026-05-03 23:31 | -22.89426 | -43.24099 | 2328 ft | 145 kts | 115° |
| 2026-05-03 23:31 | -22.89811 | -43.23096 | 2145 ft | 145 kts | 115° |
| 2026-05-03 23:31 | -22.90192 | -43.22094 | 1991 ft | 140 kts | 114° |
| 2026-05-03 23:32 | -22.90592 | -43.21143 | 1795 ft | 136 kts | 123° |
| 2026-05-03 23:32 | -22.91184 | -43.20362 | 1619 ft | 136 kts | 139° |
| 2026-05-03 23:32 | -22.91964 | -43.19780 | 1460 ft | 136 kts | 153° |
| 2026-05-03 23:32 | -22.92858 | -43.19449 | 1297 ft | 135 kts | 167° |
| 2026-05-03 23:33 | -22.93778 | -43.19212 | 1120 ft | 135 kts | 157° |
| 2026-05-03 23:33 | -22.94515 | -43.18602 | 929 ft | 135 kts | 123° |
| 2026-05-03 23:33 | -22.94774 | -43.17640 | 755 ft | 135 kts | 86° |
| 2026-05-03 23:33 | -22.94452 | -43.16712 | 586 ft | 135 kts | 50° |
| 2026-05-03 23:34 | -22.93678 | -43.16163 | 412 ft | 134 kts | 11° |
| 2026-05-03 23:34 | -22.92744 | -43.16174 | 217 ft | 133 kts | 355° |
| 2026-05-03 23:34 | -22.91817 | -43.16239 | 79 ft | 132 kts | 355° |
| 2026-05-03 23:34 | -22.90958 | -43.16295 | 22 ft | 87 kts | 358° |
| 2026-05-03 23:35 | -22.90805 | -43.16310 | 22 ft | 5 kts | 292° |
| 2026-05-03 23:35 | -22.90810 | -43.16419 | 22 ft | 16 kts | 266° |
| 2026-05-03 23:35 | -22.90816 | -43.16522 | 22 ft | 10 kts | 266° |
| 2026-05-03 23:35 | -22.90868 | -43.16566 | 22 ft | 11 kts | 180° |
| 2026-05-03 23:36 | -22.90933 | -43.16563 | 22 ft | 4 kts | 177° |
| 2026-05-03 23:36 | -22.90952 | -43.16575 | 22 ft | 4 kts | 252° |
| 2026-05-03 23:36 | -22.90954 | -43.16607 | 22 ft | 2 kts | 267° |
| 2026-05-03 23:36 | -22.90954 | -43.16612 | 22 ft | 0 kts | 267° |